sensor_id;sensor_type;location;lat;lon;timestamp;temperature;humidity
70676;DHT22;59069;52.242;20.900;2022-07-05T00:00:39;20.46;75.60
70676;DHT22;59069;52.242;20.900;2022-07-05T00:03:04;20.39;75.66
70676;DHT22;59069;52.242;20.900;2022-07-05T00:05:30;20.29;75.55
70676;DHT22;59069;52.242;20.900;2022-07-05T00:07:55;20.25;75.60
70676;DHT22;59069;52.242;20.900;2022-07-05T00:10:21;20.19;75.56
70676;DHT22;59069;52.242;20.900;2022-07-05T00:12:46;20.16;75.44
70676;DHT22;59069;52.242;20.900;2022-07-05T00:15:11;20.13;75.39
70676;DHT22;59069;52.242;20.900;2022-07-05T00:17:37;20.05;75.25
70676;DHT22;59069;52.242;20.900;2022-07-05T00:20:03;20.04;75.23
70676;DHT22;59069;52.242;20.900;2022-07-05T00:22:28;20.01;75.09
70676;DHT22;59069;52.242;20.900;2022-07-05T00:24:54;19.95;75.05
70676;DHT22;59069;52.242;20.900;2022-07-05T00:27:19;19.94;74.96
70676;DHT22;59069;52.242;20.900;2022-07-05T00:29:45;19.91;74.94
70676;DHT22;59069;52.242;20.900;2022-07-05T00:32:10;19.92;74.96
70676;DHT22;59069;52.242;20.900;2022-07-05T00:34:35;19.91;74.92
70676;DHT22;59069;52.242;20.900;2022-07-05T00:37:01;19.91;75.01
70676;DHT22;59069;52.242;20.900;2022-07-05T00:39:26;19.94;74.84
70676;DHT22;59069;52.242;20.900;2022-07-05T00:41:52;19.92;74.65
70676;DHT22;59069;52.242;20.900;2022-07-05T00:44:31;19.88;74.58
70676;DHT22;59069;52.242;20.900;2022-07-05T00:46:57;19.86;74.56
70676;DHT22;59069;52.242;20.900;2022-07-05T00:49:22;19.82;74.74
70676;DHT22;59069;52.242;20.900;2022-07-05T00:51:48;19.81;74.92
70676;DHT22;59069;52.242;20.900;2022-07-05T00:54:13;19.82;75.03
70676;DHT22;59069;52.242;20.900;2022-07-05T00:56:39;19.78;75.19
70676;DHT22;59069;52.242;20.900;2022-07-05T00:59:04;19.75;75.30
70676;DHT22;59069;52.242;20.900;2022-07-05T01:01:29;19.77;75.36
70676;DHT22;59069;52.242;20.900;2022-07-05T01:03:55;19.75;75.55
70676;DHT22;59069;52.242;20.900;2022-07-05T01:06:21;19.77;75.61
70676;DHT22;59069;52.242;20.900;2022-07-05T01:08:46;19.78;75.74
70676;DHT22;59069;52.242;20.900;2022-07-05T01:11:13;19.79;75.70
70676;DHT22;59069;52.242;20.900;2022-07-05T01:13:39;19.77;75.74
70676;DHT22;59069;52.242;20.900;2022-07-05T01:16:05;19.77;75.82
70676;DHT22;59069;52.242;20.900;2022-07-05T01:18:31;19.67;75.96
70676;DHT22;59069;52.242;20.900;2022-07-05T01:21:01;19.63;76.18
70676;DHT22;59069;52.242;20.900;2022-07-05T01:23:28;19.55;76.44
70676;DHT22;59069;52.242;20.900;2022-07-05T01:25:54;19.51;76.65
70676;DHT22;59069;52.242;20.900;2022-07-05T01:28:20;19.49;76.83
70676;DHT22;59069;52.242;20.900;2022-07-05T01:30:46;19.49;76.96
70676;DHT22;59069;52.242;20.900;2022-07-05T01:33:12;19.50;77.13
70676;DHT22;59069;52.242;20.900;2022-07-05T01:35:37;19.51;77.05
70676;DHT22;59069;52.242;20.900;2022-07-05T01:38:03;19.49;77.02
70676;DHT22;59069;52.242;20.900;2022-07-05T01:40:28;19.49;76.89
70676;DHT22;59069;52.242;20.900;2022-07-05T01:42:54;19.49;76.87
70676;DHT22;59069;52.242;20.900;2022-07-05T01:45:20;19.47;76.98
70676;DHT22;59069;52.242;20.900;2022-07-05T01:48:07;19.50;76.93
70676;DHT22;59069;52.242;20.900;2022-07-05T01:50:36;19.44;76.80
70676;DHT22;59069;52.242;20.900;2022-07-05T01:53:03;19.49;76.79
70676;DHT22;59069;52.242;20.900;2022-07-05T01:55:29;19.47;76.79
70676;DHT22;59069;52.242;20.900;2022-07-05T01:57:54;19.46;76.85
70676;DHT22;59069;52.242;20.900;2022-07-05T02:00:19;19.47;76.79
70676;DHT22;59069;52.242;20.900;2022-07-05T02:02:46;19.50;76.79
70676;DHT22;59069;52.242;20.900;2022-07-05T02:05:12;19.49;76.61
70676;DHT22;59069;52.242;20.900;2022-07-05T02:07:46;19.44;76.55
70676;DHT22;59069;52.242;20.900;2022-07-05T02:10:11;19.41;76.78
70676;DHT22;59069;52.242;20.900;2022-07-05T02:12:37;19.38;76.87
70676;DHT22;59069;52.242;20.900;2022-07-05T02:15:02;19.37;77.01
70676;DHT22;59069;52.242;20.900;2022-07-05T02:17:28;19.35;77.07
70676;DHT22;59069;52.242;20.900;2022-07-05T02:19:53;19.37;77.13
70676;DHT22;59069;52.242;20.900;2022-07-05T02:22:18;19.35;77.15
70676;DHT22;59069;52.242;20.900;2022-07-05T02:24:44;19.37;77.14
70676;DHT22;59069;52.242;20.900;2022-07-05T02:27:09;19.38;77.21
70676;DHT22;59069;52.242;20.900;2022-07-05T02:29:34;19.37;77.20
70676;DHT22;59069;52.242;20.900;2022-07-05T02:32:00;19.38;77.17
70676;DHT22;59069;52.242;20.900;2022-07-05T02:34:26;19.40;77.12
70676;DHT22;59069;52.242;20.900;2022-07-05T02:36:52;19.40;77.20
70676;DHT22;59069;52.242;20.900;2022-07-05T02:39:17;19.35;77.00
70676;DHT22;59069;52.242;20.900;2022-07-05T02:41:42;19.34;77.05
70676;DHT22;59069;52.242;20.900;2022-07-05T02:44:08;19.33;77.13
70676;DHT22;59069;52.242;20.900;2022-07-05T02:46:33;19.31;77.15
70676;DHT22;59069;52.242;20.900;2022-07-05T02:48:58;19.34;77.16
70676;DHT22;59069;52.242;20.900;2022-07-05T02:51:24;19.33;77.09
70676;DHT22;59069;52.242;20.900;2022-07-05T02:53:49;19.34;76.96
70676;DHT22;59069;52.242;20.900;2022-07-05T02:56:15;19.37;77.00
70676;DHT22;59069;52.242;20.900;2022-07-05T02:58:40;19.35;76.95
70676;DHT22;59069;52.242;20.900;2022-07-05T03:01:05;19.35;76.75
70676;DHT22;59069;52.242;20.900;2022-07-05T03:03:31;19.40;76.65
70676;DHT22;59069;52.242;20.900;2022-07-05T03:05:56;19.43;76.48
70676;DHT22;59069;52.242;20.900;2022-07-05T03:08:21;19.46;76.40
70676;DHT22;59069;52.242;20.900;2022-07-05T03:10:47;19.51;76.12
70676;DHT22;59069;52.242;20.900;2022-07-05T03:13:12;19.53;75.88
70676;DHT22;59069;52.242;20.900;2022-07-05T03:15:38;19.55;75.58
70676;DHT22;59069;52.242;20.900;2022-07-05T03:18:03;19.57;75.23
70676;DHT22;59069;52.242;20.900;2022-07-05T03:20:29;19.57;74.82
70676;DHT22;59069;52.242;20.900;2022-07-05T03:22:54;19.57;74.59
70676;DHT22;59069;52.242;20.900;2022-07-05T03:25:19;19.55;74.37
70676;DHT22;59069;52.242;20.900;2022-07-05T03:27:45;19.57;74.17
70676;DHT22;59069;52.242;20.900;2022-07-05T03:30:11;19.53;73.81
70676;DHT22;59069;52.242;20.900;2022-07-05T03:32:36;19.54;73.57
70676;DHT22;59069;52.242;20.900;2022-07-05T03:35:02;19.53;73.19
70676;DHT22;59069;52.242;20.900;2022-07-05T03:37:27;19.51;72.90
70676;DHT22;59069;52.242;20.900;2022-07-05T03:39:53;19.46;72.96
70676;DHT22;59069;52.242;20.900;2022-07-05T03:42:18;19.51;72.71
70676;DHT22;59069;52.242;20.900;2022-07-05T03:44:44;19.50;72.32
70676;DHT22;59069;52.242;20.900;2022-07-05T03:47:09;19.50;71.92
70676;DHT22;59069;52.242;20.900;2022-07-05T03:49:34;19.50;71.50
70676;DHT22;59069;52.242;20.900;2022-07-05T03:52:00;19.50;71.24
70676;DHT22;59069;52.242;20.900;2022-07-05T03:54:25;19.53;71.11
70676;DHT22;59069;52.242;20.900;2022-07-05T03:56:51;19.50;70.75
70676;DHT22;59069;52.242;20.900;2022-07-05T03:59:16;19.54;70.51
70676;DHT22;59069;52.242;20.900;2022-07-05T04:01:41;19.54;70.39
70676;DHT22;59069;52.242;20.900;2022-07-05T04:04:07;19.57;70.24
70676;DHT22;59069;52.242;20.900;2022-07-05T04:06:32;19.60;69.97
70676;DHT22;59069;52.242;20.900;2022-07-05T04:08:57;19.58;69.69
70676;DHT22;59069;52.242;20.900;2022-07-05T04:11:23;19.61;69.36
70676;DHT22;59069;52.242;20.900;2022-07-05T04:13:48;19.61;69.09
70676;DHT22;59069;52.242;20.900;2022-07-05T04:16:13;19.61;68.88
70676;DHT22;59069;52.242;20.900;2022-07-05T04:18:39;19.64;68.66
70676;DHT22;59069;52.242;20.900;2022-07-05T04:21:04;19.61;68.50
70676;DHT22;59069;52.242;20.900;2022-07-05T04:23:30;19.64;68.40
70676;DHT22;59069;52.242;20.900;2022-07-05T04:25:55;19.64;68.46
70676;DHT22;59069;52.242;20.900;2022-07-05T04:28:21;19.64;68.15
70676;DHT22;59069;52.242;20.900;2022-07-05T04:30:47;19.65;67.96
70676;DHT22;59069;52.242;20.900;2022-07-05T04:33:12;19.67;67.73
70676;DHT22;59069;52.242;20.900;2022-07-05T04:35:38;19.70;67.53
70676;DHT22;59069;52.242;20.900;2022-07-05T04:38:03;19.70;67.41
70676;DHT22;59069;52.242;20.900;2022-07-05T04:40:29;19.70;67.31
70676;DHT22;59069;52.242;20.900;2022-07-05T04:42:54;19.79;67.32
70676;DHT22;59069;52.242;20.900;2022-07-05T04:45:20;19.82;67.12
70676;DHT22;59069;52.242;20.900;2022-07-05T04:47:45;19.88;66.76
70676;DHT22;59069;52.242;20.900;2022-07-05T04:50:11;19.91;66.62
70676;DHT22;59069;52.242;20.900;2022-07-05T04:52:36;19.91;66.50
70676;DHT22;59069;52.242;20.900;2022-07-05T04:55:02;19.95;66.17
70676;DHT22;59069;52.242;20.900;2022-07-05T04:57:35;19.94;65.84
70676;DHT22;59069;52.242;20.900;2022-07-05T05:00:01;19.91;65.42
70676;DHT22;59069;52.242;20.900;2022-07-05T05:02:26;19.94;65.44
70676;DHT22;59069;52.242;20.900;2022-07-05T05:04:51;19.96;65.46
70676;DHT22;59069;52.242;20.900;2022-07-05T05:07:16;19.96;65.32
70676;DHT22;59069;52.242;20.900;2022-07-05T05:09:42;20.02;65.45
70676;DHT22;59069;52.242;20.900;2022-07-05T05:12:08;20.11;65.25
70676;DHT22;59069;52.242;20.900;2022-07-05T05:14:33;20.13;64.99
70676;DHT22;59069;52.242;20.900;2022-07-05T05:16:58;20.25;64.94
70676;DHT22;59069;52.242;20.900;2022-07-05T05:19:24;20.32;64.73
70676;DHT22;59069;52.242;20.900;2022-07-05T05:21:49;20.39;64.44
70676;DHT22;59069;52.242;20.900;2022-07-05T05:24:15;20.43;64.13
70676;DHT22;59069;52.242;20.900;2022-07-05T05:26:40;20.50;63.85
70676;DHT22;59069;52.242;20.900;2022-07-05T05:29:05;20.53;63.77
70676;DHT22;59069;52.242;20.900;2022-07-05T05:31:31;20.59;63.88
70676;DHT22;59069;52.242;20.900;2022-07-05T05:33:56;20.64;63.39
70676;DHT22;59069;52.242;20.900;2022-07-05T05:36:21;20.72;63.33
70676;DHT22;59069;52.242;20.900;2022-07-05T05:38:47;20.76;63.30
70676;DHT22;59069;52.242;20.900;2022-07-05T05:41:12;20.81;63.21
70676;DHT22;59069;52.242;20.900;2022-07-05T05:43:38;20.88;62.77
70676;DHT22;59069;52.242;20.900;2022-07-05T05:46:03;20.97;62.53
70676;DHT22;59069;52.242;20.900;2022-07-05T05:48:28;21.04;62.21
70676;DHT22;59069;52.242;20.900;2022-07-05T05:50:54;21.10;62.12
70676;DHT22;59069;52.242;20.900;2022-07-05T05:53:19;21.14;62.12
70676;DHT22;59069;52.242;20.900;2022-07-05T05:55:45;21.20;61.83
70676;DHT22;59069;52.242;20.900;2022-07-05T06:00:39;21.20;61.37
70676;DHT22;59069;52.242;20.900;2022-07-05T06:03:05;21.21;61.42
70676;DHT22;59069;52.242;20.900;2022-07-05T06:05:30;21.18;61.39
70676;DHT22;59069;52.242;20.900;2022-07-05T06:07:56;21.15;61.55
70676;DHT22;59069;52.242;20.900;2022-07-05T06:10:24;21.15;61.53
70676;DHT22;59069;52.242;20.900;2022-07-05T06:12:50;21.17;61.73
70676;DHT22;59069;52.242;20.900;2022-07-05T06:15:17;21.17;61.78
70676;DHT22;59069;52.242;20.900;2022-07-05T06:17:43;21.24;62.15
70676;DHT22;59069;52.242;20.900;2022-07-05T06:20:14;21.34;62.18
70676;DHT22;59069;52.242;20.900;2022-07-05T06:22:40;21.46;62.20
70676;DHT22;59069;52.242;20.900;2022-07-05T06:25:06;21.59;62.23
70676;DHT22;59069;52.242;20.900;2022-07-05T06:27:31;21.71;61.83
70676;DHT22;59069;52.242;20.900;2022-07-05T06:29:57;21.79;61.41
70676;DHT22;59069;52.242;20.900;2022-07-05T06:32:23;21.88;61.05
70676;DHT22;59069;52.242;20.900;2022-07-05T06:34:49;21.93;61.08
70676;DHT22;59069;52.242;20.900;2022-07-05T06:37:14;22.06;60.96
70676;DHT22;59069;52.242;20.900;2022-07-05T06:39:39;22.14;60.50
70676;DHT22;59069;52.242;20.900;2022-07-05T06:42:05;22.18;60.07
70676;DHT22;59069;52.242;20.900;2022-07-05T06:44:30;22.16;59.57
70676;DHT22;59069;52.242;20.900;2022-07-05T06:46:55;22.17;59.94
70676;DHT22;59069;52.242;20.900;2022-07-05T06:49:21;22.32;60.14
70676;DHT22;59069;52.242;20.900;2022-07-05T06:51:46;22.43;60.18
70676;DHT22;59069;52.242;20.900;2022-07-05T06:54:12;22.60;59.90
70676;DHT22;59069;52.242;20.900;2022-07-05T06:56:37;22.77;59.62
70676;DHT22;59069;52.242;20.900;2022-07-05T06:59:02;22.90;59.32
70676;DHT22;59069;52.242;20.900;2022-07-05T07:01:28;23.06;58.69
70676;DHT22;59069;52.242;20.900;2022-07-05T07:03:53;23.15;58.55
70676;DHT22;59069;52.242;20.900;2022-07-05T07:06:19;23.25;58.05
70676;DHT22;59069;52.242;20.900;2022-07-05T07:08:45;23.35;57.97
70676;DHT22;59069;52.242;20.900;2022-07-05T07:11:49;23.47;58.11
70676;DHT22;59069;52.242;20.900;2022-07-05T07:14:16;23.59;57.59
70676;DHT22;59069;52.242;20.900;2022-07-05T07:16:42;23.59;57.04
70676;DHT22;59069;52.242;20.900;2022-07-05T07:19:07;23.53;56.32
70676;DHT22;59069;52.242;20.900;2022-07-05T07:21:33;23.53;56.82
70676;DHT22;59069;52.242;20.900;2022-07-05T07:23:58;23.60;56.92
70676;DHT22;59069;52.242;20.900;2022-07-05T07:26:24;23.74;56.77
70676;DHT22;59069;52.242;20.900;2022-07-05T07:28:49;23.84;55.99
70676;DHT22;59069;52.242;20.900;2022-07-05T07:31:14;23.80;55.61
70676;DHT22;59069;52.242;20.900;2022-07-05T07:33:40;23.86;55.86
70676;DHT22;59069;52.242;20.900;2022-07-05T07:36:05;23.98;56.17
70676;DHT22;59069;52.242;20.900;2022-07-05T07:38:31;24.18;55.99
70676;DHT22;59069;52.242;20.900;2022-07-05T07:40:56;24.35;55.51
70676;DHT22;59069;52.242;20.900;2022-07-05T07:43:22;24.51;55.37
70676;DHT22;59069;52.242;20.900;2022-07-05T07:45:48;24.58;54.66
70676;DHT22;59069;52.242;20.900;2022-07-05T07:48:13;24.58;53.93
70676;DHT22;59069;52.242;20.900;2022-07-05T07:50:38;24.64;54.26
70676;DHT22;59069;52.242;20.900;2022-07-05T07:53:04;24.79;54.52
70676;DHT22;59069;52.242;20.900;2022-07-05T07:55:29;24.89;54.34
70676;DHT22;59069;52.242;20.900;2022-07-05T07:57:55;25.03;53.66
70676;DHT22;59069;52.242;20.900;2022-07-05T08:00:20;25.08;53.26
70676;DHT22;59069;52.242;20.900;2022-07-05T08:02:46;25.09;53.39
70676;DHT22;59069;52.242;20.900;2022-07-05T08:05:11;25.27;53.36
70676;DHT22;59069;52.242;20.900;2022-07-05T08:07:36;25.29;52.53
70676;DHT22;59069;52.242;20.900;2022-07-05T08:10:06;25.31;52.67
70676;DHT22;59069;52.242;20.900;2022-07-05T08:12:32;25.39;52.42
70676;DHT22;59069;52.242;20.900;2022-07-05T08:14:58;25.44;52.45
70676;DHT22;59069;52.242;20.900;2022-07-05T08:17:24;25.51;52.41
70676;DHT22;59069;52.242;20.900;2022-07-05T08:19:49;25.60;52.10
70676;DHT22;59069;52.242;20.900;2022-07-05T08:22:33;25.75;51.78
70676;DHT22;59069;52.242;20.900;2022-07-05T08:24:59;25.80;51.68
70676;DHT22;59069;52.242;20.900;2022-07-05T08:27:25;25.87;51.08
70676;DHT22;59069;52.242;20.900;2022-07-05T08:29:50;25.84;50.74
70676;DHT22;59069;52.242;20.900;2022-07-05T08:32:16;25.91;50.63
70676;DHT22;59069;52.242;20.900;2022-07-05T08:34:42;25.91;50.48
70676;DHT22;59069;52.242;20.900;2022-07-05T08:37:07;26.01;51.88
70676;DHT22;59069;52.242;20.900;2022-07-05T08:39:33;26.08;51.02
70676;DHT22;59069;52.242;20.900;2022-07-05T08:41:59;26.24;49.97
70676;DHT22;59069;52.242;20.900;2022-07-05T08:44:27;26.28;49.28
70676;DHT22;59069;52.242;20.900;2022-07-05T08:46:55;26.36;49.43
70676;DHT22;59069;52.242;20.900;2022-07-05T08:49:27;26.42;48.91
70676;DHT22;59069;52.242;20.900;2022-07-05T08:51:54;26.45;49.38
70676;DHT22;59069;52.242;20.900;2022-07-05T08:54:21;26.53;48.77
70676;DHT22;59069;52.242;20.900;2022-07-05T08:56:47;26.52;48.41
70676;DHT22;59069;52.242;20.900;2022-07-05T08:59:12;26.59;48.99
70676;DHT22;59069;52.242;20.900;2022-07-05T09:01:39;26.63;48.46
70676;DHT22;59069;52.242;20.900;2022-07-05T09:04:05;26.57;47.96
70676;DHT22;59069;52.242;20.900;2022-07-05T09:06:33;26.53;48.40
70676;DHT22;59069;52.242;20.900;2022-07-05T09:09:02;26.45;48.34
70676;DHT22;59069;52.242;20.900;2022-07-05T09:11:41;26.36;48.75
70676;DHT22;59069;52.242;20.900;2022-07-05T09:14:18;26.33;49.32
70676;DHT22;59069;52.242;20.900;2022-07-05T09:16:44;26.43;49.91
70676;DHT22;59069;52.242;20.900;2022-07-05T09:19:09;26.53;49.11
70676;DHT22;59069;52.242;20.900;2022-07-05T09:21:35;26.62;48.94
70676;DHT22;59069;52.242;20.900;2022-07-05T09:24:03;26.63;48.67
70676;DHT22;59069;52.242;20.900;2022-07-05T09:26:38;26.64;48.52
70676;DHT22;59069;52.242;20.900;2022-07-05T09:29:09;26.66;49.04
70676;DHT22;59069;52.242;20.900;2022-07-05T09:31:36;26.66;48.60
70676;DHT22;59069;52.242;20.900;2022-07-05T09:34:08;26.62;48.93
70676;DHT22;59069;52.242;20.900;2022-07-05T09:36:49;26.70;49.07
70676;DHT22;59069;52.242;20.900;2022-07-05T09:39:15;26.84;48.74
70676;DHT22;59069;52.242;20.900;2022-07-05T09:41:41;26.97;48.57
70676;DHT22;59069;52.242;20.900;2022-07-05T09:44:07;27.04;48.36
70676;DHT22;59069;52.242;20.900;2022-07-05T09:46:32;27.10;47.60
70676;DHT22;59069;52.242;20.900;2022-07-05T09:48:58;27.13;47.21
70676;DHT22;59069;52.242;20.900;2022-07-05T09:51:23;27.15;47.13
70676;DHT22;59069;52.242;20.900;2022-07-05T09:53:57;27.27;47.51
70676;DHT22;59069;52.242;20.900;2022-07-05T09:56:23;27.29;46.70
70676;DHT22;59069;52.242;20.900;2022-07-05T09:58:52;27.23;46.24
70676;DHT22;59069;52.242;20.900;2022-07-05T10:01:28;27.20;46.30
70676;DHT22;59069;52.242;20.900;2022-07-05T10:03:59;27.14;46.40
70676;DHT22;59069;52.242;20.900;2022-07-05T10:06:27;27.07;46.81
70676;DHT22;59069;52.242;20.900;2022-07-05T10:08:53;27.00;46.82
70676;DHT22;59069;52.242;20.900;2022-07-05T10:11:19;26.87;46.92
70676;DHT22;59069;52.242;20.900;2022-07-05T10:13:50;26.79;47.16
70676;DHT22;59069;52.242;20.900;2022-07-05T10:16:17;26.72;47.29
70676;DHT22;59069;52.242;20.900;2022-07-05T10:18:44;26.64;47.42
70676;DHT22;59069;52.242;20.900;2022-07-05T10:21:13;26.59;47.65
70676;DHT22;59069;52.242;20.900;2022-07-05T10:23:43;26.52;47.61
70676;DHT22;59069;52.242;20.900;2022-07-05T10:26:10;26.45;47.78
70676;DHT22;59069;52.242;20.900;2022-07-05T10:28:39;26.35;48.21
70676;DHT22;59069;52.242;20.900;2022-07-05T10:31:05;26.31;48.78
70676;DHT22;59069;52.242;20.900;2022-07-05T10:33:34;26.32;48.85
70676;DHT22;59069;52.242;20.900;2022-07-05T10:36:00;26.29;48.79
70676;DHT22;59069;52.242;20.900;2022-07-05T10:38:26;26.29;49.00
70676;DHT22;59069;52.242;20.900;2022-07-05T10:40:55;26.29;49.03
70676;DHT22;59069;52.242;20.900;2022-07-05T10:43:22;26.33;49.11
70676;DHT22;59069;52.242;20.900;2022-07-05T10:45:49;26.24;48.75
70676;DHT22;59069;52.242;20.900;2022-07-05T10:48:20;26.22;48.99
70676;DHT22;59069;52.242;20.900;2022-07-05T10:58:38;26.35;49.75
70676;DHT22;59069;52.242;20.900;2022-07-05T11:03:55;26.36;49.61
70676;DHT22;59069;52.242;20.900;2022-07-05T11:06:25;26.41;49.58
70676;DHT22;59069;52.242;20.900;2022-07-05T11:11:27;26.49;49.23
70676;DHT22;59069;52.242;20.900;2022-07-05T11:13:52;26.50;48.65
70676;DHT22;59069;52.242;20.900;2022-07-05T11:18:44;26.53;48.90
70676;DHT22;59069;52.242;20.900;2022-07-05T11:21:20;26.56;48.43
70676;DHT22;59069;52.242;20.900;2022-07-05T11:23:46;26.59;48.73
70676;DHT22;59069;52.242;20.900;2022-07-05T11:26:12;26.59;48.24
70676;DHT22;59069;52.242;20.900;2022-07-05T11:28:43;26.59;48.33
70676;DHT22;59069;52.242;20.900;2022-07-05T11:31:12;26.66;48.41
70676;DHT22;59069;52.242;20.900;2022-07-05T11:33:40;26.70;47.85
70676;DHT22;59069;52.242;20.900;2022-07-05T11:36:20;26.72;47.67
70676;DHT22;59069;52.242;20.900;2022-07-05T11:39:12;26.73;47.99
70676;DHT22;59069;52.242;20.900;2022-07-05T11:41:42;26.84;48.36
70676;DHT22;59069;52.242;20.900;2022-07-05T11:44:07;26.89;47.68
70676;DHT22;59069;52.242;20.900;2022-07-05T11:46:33;26.89;47.44
70676;DHT22;59069;52.242;20.900;2022-07-05T11:49:00;26.90;47.46
70676;DHT22;59069;52.242;20.900;2022-07-05T11:51:25;26.83;47.08
70676;DHT22;59069;52.242;20.900;2022-07-05T11:53:51;26.73;46.97
70676;DHT22;59069;52.242;20.900;2022-07-05T11:56:16;26.68;47.18
70676;DHT22;59069;52.242;20.900;2022-07-05T11:58:42;26.64;47.61
70676;DHT22;59069;52.242;20.900;2022-07-05T12:01:07;26.64;47.81
70676;DHT22;59069;52.242;20.900;2022-07-05T12:03:33;26.62;47.90
70676;DHT22;59069;52.242;20.900;2022-07-05T12:06:09;26.59;48.01
70676;DHT22;59069;52.242;20.900;2022-07-05T12:08:35;26.56;47.95
70676;DHT22;59069;52.242;20.900;2022-07-05T12:11:00;26.50;48.01
70676;DHT22;59069;52.242;20.900;2022-07-05T12:13:50;26.46;48.04
70676;DHT22;59069;52.242;20.900;2022-07-05T12:16:16;26.46;47.96
70676;DHT22;59069;52.242;20.900;2022-07-05T12:18:55;26.46;47.95
70676;DHT22;59069;52.242;20.900;2022-07-05T12:21:22;26.46;47.96
70676;DHT22;59069;52.242;20.900;2022-07-05T12:23:48;26.46;47.94
70676;DHT22;59069;52.242;20.900;2022-07-05T12:26:19;26.46;48.04
70676;DHT22;59069;52.242;20.900;2022-07-05T12:28:45;26.46;48.12
70676;DHT22;59069;52.242;20.900;2022-07-05T12:31:22;26.42;48.47
70676;DHT22;59069;52.242;20.900;2022-07-05T12:33:49;26.33;48.44
70676;DHT22;59069;52.242;20.900;2022-07-05T12:36:17;26.28;48.66
70676;DHT22;59069;52.242;20.900;2022-07-05T12:38:43;26.18;48.97
70676;DHT22;59069;52.242;20.900;2022-07-05T12:41:09;26.06;48.87
70676;DHT22;59069;52.242;20.900;2022-07-05T12:43:54;26.04;49.54
70676;DHT22;59069;52.242;20.900;2022-07-05T12:46:21;26.02;49.61
70676;DHT22;59069;52.242;20.900;2022-07-05T12:49:00;25.98;49.52
70676;DHT22;59069;52.242;20.900;2022-07-05T12:51:37;25.95;49.43
70676;DHT22;59069;52.242;20.900;2022-07-05T12:54:04;25.92;49.66
70676;DHT22;59069;52.242;20.900;2022-07-05T12:56:51;25.88;49.65
70676;DHT22;59069;52.242;20.900;2022-07-05T12:59:36;25.85;50.19
70676;DHT22;59069;52.242;20.900;2022-07-05T13:02:03;25.80;50.19
70676;DHT22;59069;52.242;20.900;2022-07-05T13:04:29;25.61;50.13
70676;DHT22;59069;52.242;20.900;2022-07-05T13:12:17;25.29;51.13
70676;DHT22;59069;52.242;20.900;2022-07-05T13:14:51;25.12;51.33
70676;DHT22;59069;52.242;20.900;2022-07-05T13:17:22;25.00;51.58
70676;DHT22;59069;52.242;20.900;2022-07-05T13:19:49;24.89;51.52
70676;DHT22;59069;52.242;20.900;2022-07-05T13:22:15;24.79;51.54
70676;DHT22;59069;52.242;20.900;2022-07-05T13:24:41;24.69;51.63
70676;DHT22;59069;52.242;20.900;2022-07-05T13:27:08;24.58;51.83
70676;DHT22;59069;52.242;20.900;2022-07-05T13:29:34;24.49;52.02
70676;DHT22;59069;52.242;20.900;2022-07-05T13:31:59;24.44;52.26
70676;DHT22;59069;52.242;20.900;2022-07-05T13:34:24;24.37;52.26
70676;DHT22;59069;52.242;20.900;2022-07-05T13:36:52;24.27;52.38
70676;DHT22;59069;52.242;20.900;2022-07-05T13:39:21;24.20;52.49
70676;DHT22;59069;52.242;20.900;2022-07-05T13:41:47;24.11;52.40
70676;DHT22;59069;52.242;20.900;2022-07-05T13:44:13;24.04;52.31
70676;DHT22;59069;52.242;20.900;2022-07-05T13:46:38;23.96;52.42
70676;DHT22;59069;52.242;20.900;2022-07-05T13:49:04;23.88;52.52
70676;DHT22;59069;52.242;20.900;2022-07-05T13:51:30;23.80;52.64
70676;DHT22;59069;52.242;20.900;2022-07-05T13:53:55;23.73;52.79
70676;DHT22;59069;52.242;20.900;2022-07-05T13:56:21;23.66;52.94
70676;DHT22;59069;52.242;20.900;2022-07-05T13:58:46;23.62;52.99
70676;DHT22;59069;52.242;20.900;2022-07-05T14:01:12;23.53;53.06
70676;DHT22;59069;52.242;20.900;2022-07-05T14:03:37;23.45;53.01
70676;DHT22;59069;52.242;20.900;2022-07-05T14:06:02;23.35;53.23
70676;DHT22;59069;52.242;20.900;2022-07-05T14:08:28;23.32;53.64
70676;DHT22;59069;52.242;20.900;2022-07-05T14:10:55;23.29;53.79
70676;DHT22;59069;52.242;20.900;2022-07-05T14:13:23;23.25;54.20
70676;DHT22;59069;52.242;20.900;2022-07-05T14:15:49;23.19;54.30
70676;DHT22;59069;52.242;20.900;2022-07-05T14:18:16;23.15;54.35
70676;DHT22;59069;52.242;20.900;2022-07-05T14:20:42;23.12;54.16
70676;DHT22;59069;52.242;20.900;2022-07-05T14:23:12;23.05;54.60
70676;DHT22;59069;52.242;20.900;2022-07-05T14:25:39;23.01;55.03
70676;DHT22;59069;52.242;20.900;2022-07-05T14:28:05;22.94;56.26
70676;DHT22;59069;52.242;20.900;2022-07-05T14:30:34;22.84;57.45
70676;DHT22;59069;52.242;20.900;2022-07-05T14:32:59;22.72;58.00
70676;DHT22;59069;52.242;20.900;2022-07-05T14:35:25;22.68;59.38
70676;DHT22;59069;52.242;20.900;2022-07-05T14:37:50;22.58;60.39
70676;DHT22;59069;52.242;20.900;2022-07-05T14:40:16;22.46;61.90
70676;DHT22;59069;52.242;20.900;2022-07-05T14:42:41;22.27;63.53
70676;DHT22;59069;52.242;20.900;2022-07-05T14:45:07;22.07;65.14
70676;DHT22;59069;52.242;20.900;2022-07-05T14:47:32;21.92;66.22
70676;DHT22;59069;52.242;20.900;2022-07-05T14:49:57;21.71;66.74
70676;DHT22;59069;52.242;20.900;2022-07-05T14:52:23;21.54;67.41
70676;DHT22;59069;52.242;20.900;2022-07-05T14:54:48;21.39;67.84
70676;DHT22;59069;52.242;20.900;2022-07-05T14:57:14;21.24;68.79
70676;DHT22;59069;52.242;20.900;2022-07-05T14:59:39;21.01;69.59
70676;DHT22;59069;52.242;20.900;2022-07-05T15:02:05;20.86;70.19
70676;DHT22;59069;52.242;20.900;2022-07-05T15:04:33;20.66;70.54
70676;DHT22;59069;52.242;20.900;2022-07-05T15:06:59;20.53;71.53
70676;DHT22;59069;52.242;20.900;2022-07-05T15:09:24;20.39;72.37
70676;DHT22;59069;52.242;20.900;2022-07-05T15:11:49;20.29;73.83
70676;DHT22;59069;52.242;20.900;2022-07-05T15:14:16;20.19;74.65
70676;DHT22;59069;52.242;20.900;2022-07-05T15:16:42;20.15;75.36
70676;DHT22;59069;52.242;20.900;2022-07-05T15:19:07;20.06;76.08
70676;DHT22;59069;52.242;20.900;2022-07-05T15:21:33;20.01;76.60
70676;DHT22;59069;52.242;20.900;2022-07-05T15:23:58;19.98;76.99
70676;DHT22;59069;52.242;20.900;2022-07-05T15:26:24;19.96;77.47
70676;DHT22;59069;52.242;20.900;2022-07-05T15:28:56;19.98;77.23
70676;DHT22;59069;52.242;20.900;2022-07-05T15:31:29;19.96;77.60
70676;DHT22;59069;52.242;20.900;2022-07-05T15:33:56;19.95;78.18
70676;DHT22;59069;52.242;20.900;2022-07-05T15:36:21;19.98;78.61